createdAt,value
2017-10-14T00:00:05.978Z,47.5
2017-10-14T00:02:05.754Z,47.6
2017-10-14T00:04:05.438Z,47.5
2017-10-14T00:06:05.181Z,47.5
2017-10-14T00:08:06.097Z,47.5
2017-10-14T00:10:08.316Z,47.5
2017-10-14T00:12:05.009Z,47.5
2017-10-14T00:14:05.734Z,47.5
2017-10-14T00:16:08.525Z,47.5
2017-10-14T00:18:05.508Z,47.4
2017-10-14T00:20:05.295Z,47.5
2017-10-14T00:22:08.527Z,47.5
2017-10-14T00:24:05.220Z,47.5
2017-10-14T00:26:06.011Z,47.4
2017-10-14T00:28:05.699Z,47.5
2017-10-14T00:30:07.970Z,47.4
2017-10-14T00:32:05.380Z,47.4
2017-10-14T00:34:05.155Z,47.4
2017-10-14T00:36:05.853Z,47.4
2017-10-14T00:38:05.657Z,47.4
2017-10-14T00:40:05.884Z,47.5
2017-10-14T00:42:05.583Z,47.4
2017-10-14T00:44:05.861Z,47.5
2017-10-14T00:46:13.140Z,47.4
2017-10-14T00:48:10.169Z,47.4
2017-10-14T00:50:05.933Z,47.4
2017-10-14T00:52:05.658Z,47.4
2017-10-14T00:54:06.108Z,47.4
2017-10-14T00:56:05.831Z,47.4
2017-10-14T00:58:08.124Z,47.4
2017-10-14T01:00:05.355Z,47.4
2017-10-14T01:02:05.110Z,47.2
2017-10-14T01:04:08.231Z,47.4
2017-10-14T01:06:12.031Z,47.4
2017-10-14T01:08:05.910Z,47.4
2017-10-14T01:10:05.335Z,47.4
2017-10-14T01:12:05.034Z,47.4
2017-10-14T01:14:05.987Z,47.3
2017-10-14T01:16:05.451Z,47.1
2017-10-14T01:18:07.947Z,47.3
2017-10-14T01:20:08.248Z,47.1
2017-10-14T01:22:05.985Z,47.1
2017-10-14T01:24:10.552Z,47.3
2017-10-14T01:26:05.350Z,47.3
2017-10-14T01:28:06.058Z,47.2
2017-10-14T01:30:05.727Z,47.3
2017-10-14T01:32:08.078Z,47.1
2017-10-14T01:34:05.858Z,47.3
2017-10-14T01:36:05.607Z,47.3
2017-10-14T01:38:05.309Z,47.1
2017-10-14T01:40:11.066Z,47.1
2017-10-14T01:42:05.512Z,47.1
2017-10-14T01:44:05.782Z,47.1
2017-10-14T01:46:06.013Z,47.1
2017-10-14T01:48:05.720Z,47.1
2017-10-14T01:50:10.736Z,47
2017-10-14T01:52:06.017Z,47.1
2017-10-14T01:54:07.813Z,47.3
2017-10-14T01:56:10.690Z,47.1
2017-10-14T01:58:05.380Z,47.3
2017-10-14T02:00:05.640Z,47.1
2017-10-14T02:02:07.904Z,47.1
2017-10-14T02:04:05.576Z,47.1
2017-10-14T02:06:07.797Z,47.1
2017-10-14T02:08:07.577Z,47.1
2017-10-14T02:10:05.322Z,47.1
2017-10-14T02:12:05.056Z,47.1
2017-10-14T02:14:08.352Z,47.2
2017-10-14T02:16:07.697Z,47.2
2017-10-14T02:18:08.198Z,47.2
2017-10-14T02:20:06.005Z,47.2
2017-10-14T02:22:07.769Z,47.2
2017-10-14T02:24:05.499Z,47.2
2017-10-14T02:26:05.313Z,47.2
2017-10-14T02:28:08.528Z,47.3
2017-10-14T02:30:05.200Z,47.3
2017-10-14T02:32:13.441Z,47.3
2017-10-14T02:34:05.111Z,47.3
2017-10-14T02:36:08.339Z,47.2
2017-10-14T02:38:05.173Z,47.2
2017-10-14T02:40:05.885Z,47.2
2017-10-14T02:42:08.106Z,47.2
2017-10-14T02:44:05.913Z,47.2
2017-10-14T02:46:05.133Z,47.2
2017-10-14T02:48:05.931Z,47.2
2017-10-14T02:50:05.652Z,47.2
2017-10-14T02:52:07.957Z,47.2
2017-10-14T02:54:05.716Z,47.2
2017-10-14T02:56:07.963Z,47.1
2017-10-14T02:58:05.700Z,47.1
2017-10-14T03:00:08.035Z,47.1
2017-10-14T03:02:05.840Z,47.1
2017-10-14T03:04:05.570Z,47.1
2017-10-14T03:06:05.268Z,47.2
2017-10-14T03:08:06.097Z,47.1
2017-10-14T03:10:08.442Z,47.1
2017-10-14T03:12:05.685Z,47.1
2017-10-14T03:14:05.420Z,47.1
2017-10-14T03:16:10.160Z,47.2
2017-10-14T03:18:05.073Z,47.2
2017-10-14T03:20:05.788Z,47.2
2017-10-14T03:22:08.516Z,47.1
2017-10-14T03:24:10.278Z,47.1
2017-10-14T03:26:06.063Z,47.1
2017-10-14T03:28:05.843Z,47.1
2017-10-14T03:30:05.655Z,47.1
2017-10-14T03:32:05.934Z,47.1
2017-10-14T03:34:05.687Z,47.1
2017-10-14T03:36:07.955Z,47.1
2017-10-14T03:38:05.698Z,47.1
2017-10-14T03:40:05.393Z,47.1
2017-10-14T03:42:05.106Z,47.1
2017-10-14T03:44:05.916Z,47.1
2017-10-14T03:46:05.727Z,47.1
2017-10-14T03:48:05.514Z,47.1
2017-10-14T03:50:05.345Z,47.1
2017-10-14T03:52:05.050Z,47.1
2017-10-14T03:54:05.327Z,47.1
2017-10-14T03:56:05.128Z,47.1
2017-10-14T03:58:10.910Z,47
2017-10-14T04:00:05.593Z,47
2017-10-14T04:02:07.954Z,47
2017-10-14T04:04:05.592Z,47
2017-10-14T04:06:05.331Z,47
2017-10-14T04:08:05.123Z,47
2017-10-14T04:10:05.897Z,47
2017-10-14T04:12:05.670Z,46.9
2017-10-14T04:14:05.489Z,46.9
2017-10-14T04:16:05.759Z,46.9
2017-10-14T04:18:08.287Z,46.9
2017-10-14T04:20:13.097Z,46.9
2017-10-14T04:22:08.341Z,46.9
2017-10-14T04:24:05.040Z,46.8
2017-10-14T04:26:05.757Z,46.8
2017-10-14T04:28:05.493Z,46.9
2017-10-14T04:30:10.317Z,46.8
2017-10-14T04:32:08.574Z,46.8
2017-10-14T04:34:08.688Z,46.9
2017-10-14T04:36:11.531Z,46.8
2017-10-14T04:38:05.461Z,46.6
2017-10-14T04:40:05.163Z,46.8
2017-10-14T04:42:05.885Z,46.8
2017-10-14T04:44:08.182Z,46.8
2017-10-14T04:46:07.918Z,46.8
2017-10-14T04:48:05.806Z,46.8
2017-10-14T04:50:08.033Z,46.8
2017-10-14T04:52:05.706Z,46.8
2017-10-14T04:54:05.439Z,46.8
2017-10-14T04:56:05.140Z,46.8
2017-10-14T04:58:05.338Z,46.8
2017-10-14T05:00:05.535Z,46.9
2017-10-14T05:02:05.376Z,46.6
2017-10-14T05:04:05.098Z,46.8
2017-10-14T05:06:05.832Z,46.8
2017-10-14T05:08:08.116Z,46.8
2017-10-14T05:10:05.816Z,46.6
2017-10-14T05:12:10.631Z,46.6
2017-10-14T05:14:06.048Z,46.8
2017-10-14T05:16:10.324Z,46.8
2017-10-14T05:18:05.299Z,46.7
2017-10-14T05:20:05.716Z,46.7
2017-10-14T05:22:05.976Z,46.8
2017-10-14T05:24:05.649Z,46.8
2017-10-14T05:26:07.936Z,46.7
2017-10-14T05:28:10.248Z,46.5
2017-10-14T05:30:05.512Z,46.5
2017-10-14T05:32:05.838Z,46.7
2017-10-14T05:34:05.118Z,46.5
2017-10-14T05:36:05.862Z,46.7
2017-10-14T05:38:08.167Z,46.5
2017-10-14T05:40:05.827Z,46.5
2017-10-14T05:42:05.096Z,46.7
2017-10-14T05:44:05.822Z,46.7
2017-10-14T05:46:08.075Z,46.6
2017-10-14T05:48:05.787Z,46.4
2017-10-14T05:50:05.183Z,46.4
2017-10-14T05:52:05.852Z,46.4
2017-10-14T05:54:05.564Z,46.7
2017-10-14T05:56:05.396Z,46.7
2017-10-14T05:58:07.658Z,46.4
2017-10-14T06:00:05.358Z,46.4
2017-10-14T06:02:05.563Z,46.6
2017-10-14T06:04:05.278Z,46.6
2017-10-14T06:06:05.044Z,46.6
2017-10-14T06:08:05.848Z,46.6
2017-10-14T06:10:10.668Z,46.5
2017-10-14T06:12:05.952Z,46.6
2017-10-14T06:14:13.333Z,46.5
2017-10-14T06:16:07.603Z,46.5
2017-10-14T06:18:08.039Z,46.5
2017-10-14T06:20:05.709Z,46.5
2017-10-14T06:22:05.413Z,46.5
2017-10-14T06:24:07.655Z,46.4
2017-10-14T06:26:05.951Z,46.4
2017-10-14T06:28:05.670Z,46.6
2017-10-14T06:30:07.869Z,46.6
2017-10-14T06:32:05.566Z,46.6
2017-10-14T06:34:07.790Z,46.6
2017-10-14T06:36:05.512Z,46.6
2017-10-14T06:38:05.218Z,46.5
2017-10-14T06:40:05.917Z,46.5
2017-10-14T06:42:05.150Z,46.4
2017-10-14T06:44:05.946Z,46.5
2017-10-14T06:46:05.673Z,46.6
2017-10-14T06:48:05.379Z,46.6
2017-10-14T06:50:05.622Z,46.5
2017-10-14T06:52:05.278Z,46.5
2017-10-14T06:54:05.978Z,46.5
2017-10-14T06:56:05.691Z,46.5
2017-10-14T06:58:10.510Z,46.6
2017-10-14T07:00:05.165Z,46.6
2017-10-14T07:02:08.444Z,46.6
2017-10-14T07:04:05.226Z,46.6
2017-10-14T07:06:05.927Z,46.9
2017-10-14T07:08:05.232Z,46.8
2017-10-14T07:10:05.914Z,46.7
2017-10-14T07:12:05.705Z,46.9
2017-10-14T07:14:05.426Z,46.9
2017-10-14T07:16:05.795Z,46.8
2017-10-14T07:18:10.856Z,46.8
2017-10-14T07:20:07.859Z,46.7
2017-10-14T07:22:05.732Z,46.7
2017-10-14T07:24:05.709Z,46.7
2017-10-14T07:26:05.525Z,46.9
2017-10-14T07:28:07.850Z,46.9
2017-10-14T07:30:08.026Z,46.9
2017-10-14T07:32:08.331Z,46.8
2017-10-14T07:34:05.014Z,46.8
2017-10-14T07:36:05.658Z,46.8
2017-10-14T07:38:11.173Z,47
2017-10-14T07:40:05.514Z,45.2
2017-10-14T07:42:05.268Z,47
2017-10-14T07:44:08.159Z,47
2017-10-14T07:46:05.848Z,47
2017-10-14T07:48:05.630Z,47.2
2017-10-14T07:50:10.433Z,47.1
2017-10-14T07:52:05.127Z,47.1
2017-10-14T07:54:05.861Z,47
2017-10-14T07:56:05.604Z,47.1
2017-10-14T07:58:05.325Z,47.2
2017-10-14T08:00:06.006Z,47.1
2017-10-14T08:02:06.871Z,47.2
2017-10-14T08:04:05.569Z,47.2
2017-10-14T08:06:05.275Z,47.1
2017-10-14T08:08:05.976Z,47.2
2017-10-14T08:10:10.771Z,47.1
2017-10-14T08:12:05.524Z,47.1
2017-10-14T08:14:05.236Z,47.1
2017-10-14T08:16:05.784Z,47
2017-10-14T08:18:05.230Z,47.1
2017-10-14T08:20:08.641Z,47.1
2017-10-14T08:22:07.887Z,47.1
2017-10-14T08:24:08.188Z,47.1
2017-10-14T08:26:05.901Z,47.1
2017-10-14T08:28:05.632Z,47
2017-10-14T08:30:07.904Z,47.1
2017-10-14T08:32:05.618Z,47.1
2017-10-14T08:34:10.429Z,47.1
2017-10-14T08:36:05.166Z,47.1
2017-10-14T08:38:05.400Z,47.1
2017-10-14T08:40:05.769Z,47.1
2017-10-14T08:42:10.559Z,47.4
2017-10-14T08:44:10.294Z,47.3
2017-10-14T08:46:06.021Z,47.3
2017-10-14T08:48:05.800Z,47.2
2017-10-14T08:50:07.584Z,47
2017-10-14T08:52:05.825Z,47.1
2017-10-14T08:54:08.068Z,47.3
2017-10-14T08:56:06.101Z,47.3
2017-10-14T08:58:05.794Z,47.3
2017-10-14T09:00:05.051Z,47.1
2017-10-14T09:02:05.792Z,47.2
2017-10-14T09:04:10.135Z,47.3
2017-10-14T09:06:05.853Z,47.3
2017-10-14T09:08:05.577Z,47.4
2017-10-14T09:10:05.327Z,47.6
2017-10-14T09:12:05.063Z,48.1
2017-10-14T09:14:08.353Z,48
2017-10-14T09:16:05.037Z,47.8
2017-10-14T09:18:05.984Z,47.8
2017-10-14T09:20:05.736Z,47.5
2017-10-14T09:22:06.032Z,47.8
2017-10-14T09:24:05.752Z,47.8
2017-10-14T09:26:05.562Z,47.9
2017-10-14T09:28:07.870Z,47.7
2017-10-14T09:30:05.060Z,47.7
2017-10-14T09:32:07.759Z,47.7
2017-10-14T09:34:08.036Z,47.8
2017-10-14T09:36:08.256Z,47.7
2017-10-14T09:38:08.463Z,47.6
2017-10-14T09:40:05.239Z,47.3
2017-10-14T09:42:05.919Z,47.5
2017-10-14T09:44:05.169Z,47.5
2017-10-14T09:46:05.354Z,47.4
2017-10-14T09:48:07.587Z,47.6
2017-10-14T09:50:05.312Z,47.6
2017-10-14T09:52:06.194Z,47.4
2017-10-14T09:54:06.451Z,47.4
2017-10-14T09:56:06.443Z,47.4
2017-10-14T09:58:05.198Z,47.2
2017-10-14T10:00:06.161Z,47.4
2017-10-14T10:02:05.127Z,47.2
2017-10-14T10:04:05.891Z,47.4
2017-10-14T10:06:05.665Z,47.5
2017-10-14T10:08:10.417Z,47.5
2017-10-14T10:10:08.412Z,47.8
2017-10-14T10:12:05.162Z,48
2017-10-14T10:14:06.002Z,47.3
2017-10-14T10:16:05.747Z,47.8
2017-10-14T10:18:10.249Z,47.2
2017-10-14T10:20:08.520Z,47.3
2017-10-14T10:22:07.744Z,47.4
2017-10-14T10:24:05.476Z,47.5
2017-10-14T10:26:05.247Z,47.5
2017-10-14T10:28:05.520Z,47.5
2017-10-14T10:30:07.727Z,47.5
2017-10-14T10:32:08.033Z,47.4
2017-10-14T10:34:05.724Z,47.3
2017-10-14T10:36:05.519Z,47.4
2017-10-14T10:38:10.310Z,47.3
2017-10-14T10:40:05.025Z,47.3
2017-10-14T10:42:05.808Z,47.3
2017-10-14T10:44:05.576Z,47.4
2017-10-14T10:46:05.320Z,47.3
2017-10-14T10:48:05.020Z,47.3
2017-10-14T10:50:08.246Z,47.4
2017-10-14T10:52:05.933Z,47.4
2017-10-14T10:54:05.174Z,47.5
2017-10-14T10:56:05.900Z,47.6
2017-10-14T10:58:05.702Z,47.4
2017-10-14T11:00:05.406Z,47.7
2017-10-14T11:02:05.220Z,47.4
2017-10-14T11:04:05.995Z,47.5
2017-10-14T11:06:08.270Z,47.4
2017-10-14T11:08:05.976Z,47.4
2017-10-14T11:10:05.663Z,47.3
2017-10-14T11:12:08.054Z,47.6
2017-10-14T11:14:05.788Z,47.6
2017-10-14T11:16:07.654Z,47.7
2017-10-14T11:18:05.530Z,47.7
2017-10-14T11:20:05.353Z,47.4
2017-10-14T11:22:07.560Z,47.6
2017-10-14T11:24:05.282Z,47.7
2017-10-14T11:26:08.527Z,47.4
2017-10-14T11:28:05.248Z,47.3
2017-10-14T11:30:05.928Z,47.5
2017-10-14T11:32:08.180Z,47.5
2017-10-14T11:34:05.426Z,47.3
2017-10-14T11:36:05.138Z,47.4
2017-10-14T11:38:05.863Z,47.4
2017-10-14T11:40:10.589Z,47.4
2017-10-14T11:42:05.249Z,47.4
2017-10-14T11:44:06.188Z,47.4
2017-10-14T11:46:08.546Z,47.6
2017-10-14T11:48:07.772Z,47.6
2017-10-14T11:50:05.497Z,47.6
2017-10-14T11:52:05.263Z,47.5
2017-10-14T11:54:05.548Z,47.4
2017-10-14T11:56:07.744Z,47.5
2017-10-14T11:58:05.399Z,47.4
2017-10-14T12:00:05.129Z,47.2
2017-10-14T12:02:05.846Z,47.3
2017-10-14T12:04:08.052Z,47.3
2017-10-14T12:06:05.760Z,47.2
2017-10-14T12:08:05.507Z,47.3
2017-10-14T12:10:05.185Z,47.3
2017-10-14T12:12:05.449Z,47.3
2017-10-14T12:14:05.132Z,47.1
2017-10-14T12:16:05.845Z,47.1
2017-10-14T12:18:05.791Z,47.1
2017-10-14T12:20:05.095Z,47.1
2017-10-14T12:22:05.903Z,47.1
2017-10-14T12:24:05.679Z,47.1
2017-10-14T12:26:07.997Z,46.9
2017-10-14T12:28:05.705Z,46.9
2017-10-14T12:30:05.917Z,46.9
2017-10-14T12:32:08.166Z,47
2017-10-14T12:34:05.467Z,47
2017-10-14T12:36:07.726Z,47
2017-10-14T12:38:05.581Z,47
2017-10-14T12:40:07.889Z,47.1
2017-10-14T12:42:07.825Z,47.1
2017-10-14T12:44:05.792Z,47
2017-10-14T12:46:08.036Z,47.1
2017-10-14T12:48:05.758Z,47.1
2017-10-14T12:50:13.172Z,47.2
2017-10-14T12:52:05.874Z,47.2
2017-10-14T12:54:05.535Z,47.2
2017-10-14T12:56:05.515Z,47.2
2017-10-14T12:58:05.828Z,47.2
2017-10-14T13:00:12.683Z,47.2
2017-10-14T13:02:05.432Z,47.2
2017-10-14T13:04:07.773Z,47.3
2017-10-14T13:06:05.533Z,47.3
2017-10-14T13:08:05.355Z,47.3
2017-10-14T13:10:05.719Z,47.3
2017-10-14T13:12:05.442Z,47.3
2017-10-14T13:14:05.200Z,47.4
2017-10-14T13:16:08.506Z,47.3
2017-10-14T13:18:05.458Z,47.3
2017-10-14T13:20:05.255Z,47.3
2017-10-14T13:22:06.029Z,47.3
2017-10-14T13:24:07.843Z,47.3
2017-10-14T13:26:05.586Z,47.3
2017-10-14T13:28:05.835Z,47.3
2017-10-14T13:30:07.574Z,47.3
2017-10-14T13:32:05.312Z,47.3
2017-10-14T13:34:10.053Z,47.4
2017-10-14T13:36:10.836Z,47.4
2017-10-14T13:38:05.230Z,47.4
2017-10-14T13:40:06.021Z,47.6
2017-10-14T13:42:05.772Z,47.4
2017-10-14T13:44:05.474Z,47.6
2017-10-14T13:46:07.696Z,47.4
2017-10-14T13:48:08.010Z,47.6
2017-10-14T13:50:05.755Z,47.8
2017-10-14T13:52:05.446Z,47.6
2017-10-14T13:54:05.269Z,47.8
2017-10-14T13:56:05.196Z,47.6
2017-10-14T13:58:05.920Z,47.6
2017-10-14T14:00:08.157Z,47.6
2017-10-14T14:02:10.912Z,47.6
2017-10-14T14:04:05.642Z,47.6
2017-10-14T14:06:05.407Z,47.7
2017-10-14T14:08:07.731Z,47.7
2017-10-14T14:10:05.466Z,47.8
2017-10-14T14:12:08.246Z,48.6
2017-10-14T14:14:05.566Z,48.6
2017-10-14T14:16:05.481Z,48
2017-10-14T14:18:05.446Z,48
2017-10-14T14:20:05.163Z,47.9
2017-10-14T14:22:06.017Z,48
2017-10-14T14:24:05.799Z,48.1
2017-10-14T14:26:05.089Z,47.9
2017-10-14T14:28:05.788Z,47.9
2017-10-14T14:30:13.105Z,48.2
2017-10-14T14:32:05.826Z,48
2017-10-14T14:34:08.059Z,47.9
2017-10-14T14:36:05.770Z,47.9
2017-10-14T14:38:05.525Z,48
2017-10-14T14:40:05.291Z,48
2017-10-14T14:42:07.771Z,48.3
2017-10-14T14:44:05.519Z,48.3
2017-10-14T14:46:05.860Z,48.4
2017-10-14T14:48:10.826Z,48.2
2017-10-14T14:50:05.648Z,48.2
2017-10-14T14:52:05.524Z,48.3
2017-10-14T14:54:05.302Z,48.3
2017-10-14T14:56:05.176Z,48.3
2017-10-14T14:58:06.072Z,48.3
2017-10-14T15:00:05.857Z,48.3
2017-10-14T15:02:05.620Z,48.3
2017-10-14T15:04:05.399Z,48.6
2017-10-14T15:06:05.150Z,48.5
2017-10-14T15:08:10.992Z,48.4
2017-10-14T15:10:05.754Z,48.4
2017-10-14T15:12:05.538Z,48.2
2017-10-14T15:14:10.455Z,48.6
2017-10-14T15:16:06.174Z,48.5
2017-10-14T15:18:07.644Z,48.5
2017-10-14T15:20:07.914Z,48.4
2017-10-14T15:22:05.657Z,48.4
2017-10-14T15:24:05.555Z,48.6
2017-10-14T15:26:05.353Z,48.3
2017-10-14T15:28:05.098Z,48.3
2017-10-14T15:30:08.373Z,48.3
2017-10-14T15:32:05.244Z,48.3
2017-10-14T15:34:05.147Z,48.3
2017-10-14T15:36:05.092Z,48.4
2017-10-14T15:38:08.459Z,48.3
2017-10-14T15:40:08.267Z,48.5
2017-10-14T15:42:06.029Z,48.3
2017-10-14T15:44:05.897Z,48.8
2017-10-14T15:46:05.245Z,48.4
2017-10-14T15:48:05.104Z,48.3
2017-10-14T15:50:05.998Z,48.3
2017-10-14T15:52:05.379Z,48.3
2017-10-14T15:54:05.177Z,48.4
2017-10-14T15:56:05.232Z,48.4
2017-10-14T15:58:06.171Z,48.5
2017-10-14T16:00:08.506Z,48.5
2017-10-14T16:02:05.245Z,48.5
2017-10-14T16:04:05.954Z,48.5
2017-10-14T16:06:13.361Z,48.7
2017-10-14T16:08:12.888Z,48.5
2017-10-14T16:10:05.787Z,48.5
2017-10-14T16:12:05.849Z,48.5
2017-10-14T16:14:05.537Z,48.7
2017-10-14T16:16:05.832Z,48.7
2017-10-14T16:18:05.305Z,48.4
2017-10-14T16:20:05.190Z,48.4
2017-10-14T16:22:05.905Z,48.4
2017-10-14T16:24:08.166Z,48.4
2017-10-14T16:26:05.168Z,48.4
2017-10-14T16:28:05.853Z,48.5
2017-10-14T16:30:05.118Z,48.6
2017-10-14T16:32:05.911Z,48.6
2017-10-14T16:34:05.788Z,48.6
2017-10-14T16:36:05.606Z,48.7
2017-10-14T16:38:05.366Z,48.8
2017-10-14T16:40:06.333Z,48.9
2017-10-14T16:42:05.566Z,49.1
2017-10-14T16:44:05.627Z,49
2017-10-14T16:46:05.368Z,49.1
2017-10-14T16:48:10.192Z,49.4
2017-10-14T16:50:07.043Z,49.4
2017-10-14T16:52:07.850Z,49.4
2017-10-14T16:54:05.665Z,49.4
2017-10-14T16:56:05.947Z,49.4
2017-10-14T16:58:05.707Z,49.3
2017-10-14T17:00:08.431Z,49.4
2017-10-14T17:02:05.300Z,49.4
2017-10-14T17:04:05.183Z,49.4
2017-10-14T17:06:07.644Z,49
2017-10-14T17:08:05.485Z,49
2017-10-14T17:10:07.818Z,48.8
2017-10-14T17:12:05.509Z,48.8
2017-10-14T17:14:05.724Z,48.8
2017-10-14T17:16:07.941Z,48.7
2017-10-14T17:18:05.847Z,48.7
2017-10-14T17:20:05.785Z,48.6
2017-10-14T17:22:07.559Z,48.7
2017-10-14T17:24:05.367Z,48.7
2017-10-14T17:26:05.141Z,48.7
2017-10-14T17:28:10.982Z,48.8
2017-10-14T17:30:05.674Z,48.9
2017-10-14T17:36:08.048Z,49
2017-10-14T17:38:05.903Z,49
2017-10-14T17:40:05.759Z,48.8
2017-10-14T17:42:06.291Z,48.8
2017-10-14T17:44:05.047Z,49
2017-10-14T17:46:05.375Z,49.1
2017-10-14T17:48:06.892Z,49
2017-10-14T17:50:05.685Z,49
2017-10-14T17:52:05.524Z,48.8
2017-10-14T17:54:12.818Z,49.3
2017-10-14T17:56:15.681Z,49.4
2017-10-14T17:58:05.638Z,49.3
2017-10-14T18:00:05.396Z,49
2017-10-14T18:02:05.138Z,49.1
2017-10-14T18:04:05.822Z,48.9
2017-10-14T18:06:08.173Z,49.2
2017-10-14T18:08:10.258Z,49.2
2017-10-14T18:10:08.487Z,49.2
2017-10-14T18:12:05.180Z,49.2
2017-10-14T18:14:05.877Z,49.2
2017-10-14T18:16:05.631Z,49.2
2017-10-14T18:18:05.352Z,49.2
2017-10-14T18:20:08.671Z,49.2
2017-10-14T18:22:08.624Z,49.2
2017-10-14T18:24:16.401Z,48.9
2017-10-14T18:26:18.499Z,48.9
2017-10-14T18:28:10.305Z,48.9
2017-10-14T18:30:05.158Z,49.1
2017-10-14T18:32:10.963Z,49.2
2017-10-14T18:34:06.810Z,49.2
2017-10-14T18:36:05.144Z,49.2
2017-10-14T18:38:05.874Z,49.2
2017-10-14T18:40:10.645Z,48.9
2017-10-14T18:42:05.453Z,48.9
2017-10-14T18:44:05.180Z,48.9
2017-10-14T18:46:05.881Z,49.2
2017-10-14T18:48:08.311Z,48.7
2017-10-14T18:50:06.034Z,48.7
2017-10-14T18:52:10.808Z,48.8
2017-10-14T18:54:08.140Z,48.7
2017-10-14T18:56:05.100Z,48.8
2017-10-14T18:58:10.859Z,48.9
2017-10-14T19:00:05.691Z,48.9
2017-10-14T19:02:05.611Z,48.9
2017-10-14T19:04:08.064Z,49.1
2017-10-14T19:06:05.807Z,49.1
2017-10-14T19:08:05.605Z,48.6
2017-10-14T19:10:05.429Z,49
2017-10-14T19:12:05.207Z,49
2017-10-14T19:14:06.448Z,49
2017-10-14T19:16:07.677Z,48.8
2017-10-14T19:18:05.692Z,48.6
2017-10-14T19:20:05.619Z,48.7
2017-10-14T19:22:05.515Z,48.5
2017-10-14T19:24:07.273Z,48.6
2017-10-14T19:26:05.390Z,48.6
2017-10-14T19:28:05.685Z,48.4
2017-10-14T19:30:05.482Z,48.7
2017-10-14T19:32:05.762Z,48.6
2017-10-14T19:34:07.655Z,48.7
2017-10-14T19:36:05.440Z,48.6
2017-10-14T19:38:05.182Z,48.6
2017-10-14T19:40:05.943Z,48.6
2017-10-14T19:42:05.675Z,48.4
2017-10-14T19:44:10.495Z,48.7
2017-10-14T19:46:08.344Z,48.4
2017-10-14T19:48:07.829Z,48.4
2017-10-14T19:50:05.277Z,48.4
2017-10-14T19:52:05.542Z,48.4
2017-10-14T19:54:05.392Z,48.4
2017-10-14T19:56:05.112Z,48.3
2017-10-14T19:58:10.936Z,48.3
2017-10-14T20:00:06.257Z,48.3
2017-10-14T20:02:08.791Z,48.4
2017-10-14T20:04:05.962Z,48.3
2017-10-14T20:06:10.994Z,48.1
2017-10-14T20:08:06.003Z,48.1
2017-10-14T20:10:05.744Z,48.2
2017-10-14T20:12:05.499Z,48.2
2017-10-14T20:14:05.260Z,48.2
2017-10-14T20:16:06.067Z,48.1
2017-10-14T20:18:08.589Z,48.2
2017-10-14T20:20:07.908Z,48.2
2017-10-14T20:22:05.881Z,48.2
2017-10-14T20:24:05.787Z,48.2
2017-10-14T20:26:05.037Z,48
2017-10-14T20:28:05.742Z,48
2017-10-14T20:30:05.730Z,48
2017-10-14T20:32:06.247Z,48.2
2017-10-14T20:34:05.990Z,47.9
2017-10-14T20:36:05.565Z,47.9
2017-10-14T20:38:07.916Z,48
2017-10-14T20:40:05.626Z,48
2017-10-14T20:42:05.379Z,48
2017-10-14T20:44:05.056Z,48
2017-10-14T20:46:08.300Z,47.9
2017-10-14T20:48:08.263Z,47.9
2017-10-14T20:50:06.071Z,47.9
2017-10-14T20:52:08.363Z,47.8
2017-10-14T20:54:05.067Z,47.7
2017-10-14T20:56:05.417Z,47.7
2017-10-14T20:58:05.083Z,47.3
2017-10-14T21:00:05.336Z,47.3
2017-10-14T21:02:06.087Z,47.5
2017-10-14T21:04:05.405Z,47.4
2017-10-14T21:06:07.677Z,47.5
2017-10-14T21:08:05.375Z,47.5
2017-10-14T21:10:05.114Z,47.5
2017-10-14T21:12:05.831Z,47.5
2017-10-14T21:14:05.544Z,47.5
2017-10-14T21:16:07.791Z,47.5
2017-10-14T21:18:05.708Z,47.5
2017-10-14T21:20:05.437Z,47.3
2017-10-14T21:22:05.173Z,47.4
2017-10-14T21:24:05.936Z,47.4
2017-10-14T21:26:05.654Z,47.4
2017-10-14T21:28:07.932Z,47.5
2017-10-14T21:30:07.808Z,47.5
2017-10-14T21:32:05.095Z,47.5
2017-10-14T21:34:08.367Z,47.5
2017-10-14T21:36:05.172Z,47.5
2017-10-14T21:38:08.454Z,47.5
2017-10-14T21:40:05.309Z,47.5
2017-10-14T21:42:06.171Z,47.5
2017-10-14T21:44:05.965Z,47.5
2017-10-14T21:46:05.272Z,47.5
2017-10-14T21:48:08.604Z,47.3
2017-10-14T21:50:05.892Z,47.3
2017-10-14T21:52:05.339Z,47.2
2017-10-14T21:54:05.050Z,47.3
2017-10-14T21:56:10.815Z,47.1
2017-10-14T21:58:05.559Z,47
2017-10-14T22:00:07.871Z,47.3
2017-10-14T22:02:10.627Z,47.3
2017-10-14T22:04:07.866Z,47.2
2017-10-14T22:06:05.285Z,47.2
2017-10-14T22:08:11.127Z,46.8
2017-10-14T22:10:05.538Z,46.9
2017-10-14T22:12:05.288Z,46.8
2017-10-14T22:14:06.001Z,46.8
2017-10-14T22:16:05.751Z,46.9
2017-10-14T22:18:08.224Z,47
2017-10-14T22:20:05.038Z,47
2017-10-14T22:22:08.276Z,47
2017-10-14T22:24:06.130Z,47
2017-10-14T22:26:05.813Z,47.1
2017-10-14T22:28:05.629Z,47
2017-10-14T22:30:05.492Z,47.1
2017-10-14T22:32:05.809Z,47.1
2017-10-14T22:34:10.612Z,47.1
2017-10-14T22:36:05.372Z,47.1
2017-10-14T22:38:05.629Z,47
2017-10-14T22:40:05.347Z,47.1
2017-10-14T22:42:07.620Z,46.8
2017-10-14T22:44:05.370Z,46.8
2017-10-14T22:46:05.102Z,46.8
2017-10-14T22:48:05.891Z,46.5
2017-10-14T22:50:05.751Z,46.6
2017-10-14T22:52:07.974Z,46.7
2017-10-14T22:54:05.737Z,46.4
2017-10-14T22:56:06.050Z,46.3
2017-10-14T22:58:05.815Z,46.4
2017-10-14T23:00:05.177Z,46.4
2017-10-14T23:02:05.462Z,46.5
2017-10-14T23:04:05.178Z,46.6
2017-10-14T23:06:08.425Z,46.6
2017-10-14T23:08:05.686Z,46.6
2017-10-14T23:10:05.442Z,46.7
2017-10-14T23:12:05.222Z,46.7
2017-10-14T23:14:08.528Z,46.6
2017-10-14T23:16:05.237Z,46.6
2017-10-14T23:18:12.786Z,46.6
2017-10-14T23:20:05.593Z,46.6
2017-10-14T23:22:05.329Z,46.6
2017-10-14T23:24:05.746Z,46.6
2017-10-14T23:26:05.467Z,46.6
2017-10-14T23:28:05.331Z,46.6
2017-10-14T23:30:05.112Z,46.6
2017-10-14T23:32:13.528Z,46.6
2017-10-14T23:34:05.366Z,46.6
2017-10-14T23:36:05.144Z,46.6
2017-10-14T23:38:05.869Z,46.5
2017-10-14T23:40:05.611Z,46.6
2017-10-14T23:42:05.958Z,46.5
2017-10-14T23:44:13.290Z,46.3
2017-10-14T23:46:05.008Z,46.3
2017-10-14T23:48:05.250Z,46.3
2017-10-14T23:50:06.038Z,46.6
2017-10-14T23:52:08.420Z,46.3
2017-10-14T23:54:08.273Z,46.3
2017-10-14T23:56:08.608Z,46.2
2017-10-14T23:58:05.402Z,46.2
